Terminal Aerodrome Forecast
Issued by NWS

Home | Current Version | Previous Version | Text Only | Print | Product List | Glossary On
Versions: 1 2 3 4 5 6 7 8 9 10 11 12 13 14 15 16 17 18 19 20 21 22 23 24
705
FTUS44 KMAF 180532
TAFINK
TAF
KINK 180532Z 1806/1906 26010KT P6SM FEW250
     FM181100 32014KT P6SM SCT250
     FM181500 36022G30KT P6SM SCT250
     FM182200 04010KT P6SM FEW250=

USA.gov is the U.S. government's official web portal to all federal, state and local government web resources and services.